Ifestos I — SV4139 — position and weather

sailwx.info

Track history (hours):
 
Tides and Currents Weather Stations Pressure Air Temp Water Temp Dewpoint Dewpoint Depression Visibility Wind Speed Wind Dir Waves Ship Positions

Ifestos I

Last reported at 2017-Mar-28 01:34 UTC. Time now 2017-Mar-28 02:29 UTC.
Position N 37°57' E 023°37'.

Length 30 m.

Type: Tug. MMSI: 237070500.

Date/timePositionNaut miles runAvg speedWind from/ knotsBaromVisibWave heightAir tempDewpointWater temp
2017-Mar-28 01:34N 37°57' E 023°37'1 0.7
2017-Mar-28 00:34N 37°57' E 023°36'1 0.7
2017-Mar-27 23:33N 37°57' E 023°37'0 0.0
2017-Mar-27 22:34N 37°57' E 023°37'0 0.0
2017-Mar-27 21:33N 37°57' E 023°37'0 0.0
2017-Mar-27 20:34N 37°57' E 023°37'0 0.0
2017-Mar-27 19:33N 37°57' E 023°37'0 0.0
2017-Mar-27 18:33N 37°57' E 023°37'0 0.0
2017-Mar-27 17:33N 37°57' E 023°37'0 0.0
2017-Mar-27 16:33N 37°57' E 023°37'2 1.7
2017-Mar-27 15:34N 37°57' E 023°35'1 1.1
2017-Mar-27 14:34N 37°57' E 023°36'1 0.7
2017-Mar-27 13:33N 37°57' E 023°37'1 1.2
2017-Mar-27 12:33N 37°57' E 023°35'1 1.2
2017-Mar-27 11:34N 37°57' E 023°37'0 0.0
2017-Mar-27 10:34N 37°57' E 023°37'0 0.0
2017-Mar-27 08:33N 37°57' E 023°37'0 0.0
2017-Mar-27 07:33N 37°57' E 023°37'0 0.0
2017-Mar-27 06:33N 37°57' E 023°37'0 0.0
2017-Mar-27 05:33N 37°57' E 023°37'0 0.0
2017-Mar-27 04:33N 37°57' E 023°37'0 0.0
2017-Mar-27 03:33N 37°57' E 023°37'0 0.0
2017-Mar-27 02:33N 37°57' E 023°37'0 0.0
2017-Mar-27 01:33N 37°57' E 023°37'0 0.0
2017-Mar-27 00:33N 37°57' E 023°37'0 0.0
2017-Mar-26 23:33N 37°57' E 023°37'0 0.0
2017-Mar-26 22:33N 37°57' E 023°37'0 0.0
2017-Mar-26 21:33N 37°57' E 023°37'0 0.5
2017-Mar-26 20:33N 37°57' E 023°36'1 0.5
2017-Mar-26 19:33N 37°57' E 023°37'0 0.0
2017-Mar-26 18:33N 37°57' E 023°37'0 0.0
2017-Mar-26 17:33N 37°57' E 023°37'0 0.0
2017-Mar-26 16:33N 37°57' E 023°37'4 4.1
2017-Mar-26 15:33N 38°01' E 023°36'1 1.4
2017-Mar-26 14:34N 38°01' E 023°34'0 0.4
2017-Mar-26 13:33N 38°01' E 023°34'4 3.9
2017-Mar-26 12:33N 37°57' E 023°37'0 0.0
2017-Mar-26 11:33N 37°57' E 023°37'0 0.0
2017-Mar-26 10:33N 37°57' E 023°37'0 0.0
2017-Mar-26 09:33N 37°57' E 023°37'2 2.3
2017-Mar-26 08:33N 37°57' E 023°34'2 1.7
2017-Mar-26 07:34N 37°57' E 023°36'1 1.5
2017-Mar-26 06:33N 37°56' E 023°37'0 0.1
2017-Mar-26 05:33N 37°56' E 023°37'2 2.3
2017-Mar-26 04:33N 37°57' E 023°35'1 1.5
2017-Mar-26 03:33N 37°57' E 023°37'0 0.0
2017-Mar-26 02:33N 37°57' E 023°37'0 0.0
2017-Mar-26 01:33N 37°57' E 023°37'0 0.0
2017-Mar-26 00:33N 37°57' E 023°37'0 0.0
2017-Mar-25 23:33N 37°57' E 023°37'0 0.0
2017-Mar-25 22:33N 37°57' E 023°37'1 1.2
2017-Mar-25 21:33N 37°56' E 023°36'1 1.0
2017-Mar-25 20:34N 37°57' E 023°36'1 0.8
2017-Mar-25 19:33N 37°57' E 023°37'3 3.0
2017-Mar-25 18:33N 37°58' E 023°33'4 3.7
2017-Mar-25 17:33N 38°01' E 023°31'1 1.4
2017-Mar-25 16:33N 38°02' E 023°32'0 0.0
2017-Mar-25 15:34N 38°02' E 023°32'0 0.0
2017-Mar-25 14:33N 38°02' E 023°32'5 4.6
2017-Mar-25 13:34N 37°58' E 023°33'3 2.8
2017-Mar-25 12:33N 37°57' E 023°37'0 0.0
2017-Mar-25 11:33N 37°57' E 023°37'0 0.0
2017-Mar-25 10:33N 37°57' E 023°37'0 0.0
2017-Mar-25 09:33N 37°57' E 023°37'0 0.0
2017-Mar-25 08:33N 37°57' E 023°37'0 0.0
2017-Mar-25 07:33N 37°57' E 023°37'0 0.0
2017-Mar-25 06:33N 37°57' E 023°37'2 2.1
2017-Mar-25 05:33N 37°56' E 023°35'2 2.1
2017-Mar-25 04:33N 37°57' E 023°37'0 0.0
2017-Mar-25 03:33N 37°57' E 023°37'0 0.0
2017-Mar-25 02:33N 37°57' E 023°37'0 0.0
2017-Mar-25 01:33N 37°57' E 023°37'0 0.0
2017-Mar-25 00:33N 37°57' E 023°37'0 0.0
2017-Mar-24 23:33N 37°57' E 023°37'1 1.0
2017-Mar-24 22:33N 37°57' E 023°35'1 1.1
2017-Mar-24 21:33N 37°57' E 023°37'1 1.1
2017-Mar-24 20:33N 37°57' E 023°35'0 0.4
2017-Mar-24 19:34N 37°57' E 023°36'1 1.0
2017-Mar-24 18:33N 37°57' E 023°37'0 0.0
2017-Mar-24 17:33N 37°57' E 023°37'4 4.5
2017-Mar-24 16:33N 38°01' E 023°33'2 2.5
2017-Mar-24 15:33N 37°58' E 023°33'3 3.1
2017-Mar-24 14:33N 37°57' E 023°37'1 1.2
2017-Mar-24 13:33N 37°56' E 023°36'1 1.0
2017-Mar-24 12:33N 37°57' E 023°36'1 0.7
2017-Mar-24 11:33N 37°57' E 023°37'0 0.0
2017-Mar-24 09:33N 37°57' E 023°37'0 0.0
2017-Mar-24 08:34N 37°57' E 023°37'0 0.0
2017-Mar-24 07:33N 37°57' E 023°37'0 0.0
2017-Mar-24 06:33N 37°57' E 023°37'1 1.5
2017-Mar-24 05:34N 37°56' E 023°37'1 0.8
2017-Mar-24 04:33N 37°56' E 023°37'2 1.8
2017-Mar-24 03:34N 37°57' E 023°37'0 0.0
2017-Mar-24 02:33N 37°57' E 023°37'0 0.4
2017-Mar-24 01:34N 37°57' E 023°36'0 0.5
2017-Mar-24 00:33N 37°57' E 023°36'1 0.8
2017-Mar-23 23:34N 37°57' E 023°37'0 0.0
2017-Mar-23 22:33N 37°57' E 023°37'0 0.0
2017-Mar-23 21:34N 37°57' E 023°37'1 1.5
2017-Mar-23 20:34N 37°57' E 023°35'1 1.5
2017-Mar-23 19:33N 37°57' E 023°37'0 0.0
2017-Mar-23 18:34N 37°57' E 023°37'1 1.1
2017-Mar-23 17:33N 37°57' E 023°35'2 1.8
2017-Mar-23 16:33N 37°56' E 023°37'0 0.2
2017-Mar-23 15:33N 37°56' E 023°37'2 1.8
2017-Mar-23 14:33N 37°57' E 023°37'0 0.4
2017-Mar-23 13:33N 37°57' E 023°36'2 2.1
2017-Mar-23 12:34N 37°58' E 023°34'2 2.4
2017-Mar-23 11:34N 37°57' E 023°37'0 0.0
2017-Mar-23 08:34N 37°57' E 023°37'0 0.0
2017-Mar-23 06:21N 37°57' E 023°37'0 0.0
2017-Mar-23 05:31N 37°57' E 023°37'1 0.1
2017-Mar-22 22:33N 37°57' E 023°36'0 0.0
2017-Mar-22 20:33N 37°57' E 023°36'1 0.1
2017-Mar-22 13:08N 37°57' E 023°37'0 0.0
2017-Mar-22 05:31N 37°58' E 023°36'0 0.1
2017-Mar-22 03:27N 37°57' E 023°36'1 1.5
2017-Mar-22 02:33N 37°56' E 023°37'0 0.3
2017-Mar-22 01:33N 37°56' E 023°37'0 0.0
2017-Mar-22 00:33N 37°56' E 023°37'2 0.4
2017-Mar-21 20:33N 37°57' E 023°36'0 0.1
2017-Mar-21 16:33N 37°57' E 023°35'0 0.4
2017-Mar-21 15:33N 37°57' E 023°35'1 0.1
2017-Mar-21 06:06N 37°57' E 023°37'0 0.0
2017-Mar-21 04:13N 37°57' E 023°37'0 0.0
2017-Mar-20 23:26N 37°57' E 023°37'0 0.0
2017-Mar-20 21:26N 37°57' E 023°37'0 0.0
2017-Mar-20 20:32N 37°57' E 023°37'0 0.0
2017-Mar-20 18:33N 37°57' E 023°37'0 0.0
2017-Mar-20 17:29N 37°57' E 023°37'0 0.2
2017-Mar-20 16:30N 37°58' E 023°36'0 0.2
2017-Mar-20 15:34N 37°57' E 023°37'2 1.8
2017-Mar-20 14:33N 37°57' E 023°35'2 1.6
2017-Mar-20 13:28N 37°57' E 023°37'0 0.0
2017-Mar-20 12:33N 37°57' E 023°37'0 0.0
2017-Mar-20 07:10N 37°57' E 023°37'0 0.0
2017-Mar-20 06:31N 37°57' E 023°37'1 0.8
2017-Mar-20 05:33N 37°57' E 023°36'2 1.9
2017-Mar-20 04:33N 37°56' E 023°38'2 0.3
2017-Mar-19 22:12N 37°57' E 023°36'1 1.3
2017-Mar-19 21:33N 37°57' E 023°35'1 0.2
2017-Mar-19 17:20N 37°58' E 023°37'2 2.2
2017-Mar-19 16:33N 37°56' E 023°38'2 0.6
2017-Mar-19 13:33N 37°57' E 023°37'1 0.7
2017-Mar-19 12:33N 37°57' E 023°36'1 0.5
2017-Mar-19 11:30N 37°57' E 023°36'2 1.9
2017-Mar-19 10:34N 37°57' E 023°34'4 4.5
2017-Mar-19 09:34N 38°02' E 023°35'1 1.1
2017-Mar-19 08:33N 38°01' E 023°35'3 3.3
2017-Mar-19 07:33N 37°57' E 023°35'0 0.0
2017-Mar-19 05:33N 37°57' E 023°35'1 0.1
2017-Mar-18 23:33N 37°57' E 023°36'0 0.4
2017-Mar-18 22:20N 37°57' E 023°37'1 1.0
2017-Mar-18 21:33N 37°57' E 023°36'6 6.2
2017-Mar-18 20:33N 38°01' E 023°30'6 5.9
2017-Mar-18 19:33N 37°58' E 023°23'1 1.2
2017-Mar-18 18:34N 37°58' E 023°24'7 6.8
2017-Mar-18 17:34N 37°60' E 023°33'4 3.1
2017-Mar-18 16:16N 37°57' E 023°37'0 0.0
2017-Mar-18 14:31N 37°57' E 023°37'0 0.0
2017-Mar-18 13:28N 37°57' E 023°37'0 0.4
2017-Mar-18 12:32N 37°57' E 023°36'0 0.3
2017-Mar-18 11:11N 37°57' E 023°37'0 0.0
2017-Mar-18 10:33N 37°57' E 023°37'0 0.0
2017-Mar-18 09:18N 37°57' E 023°37'1 0.9
2017-Mar-18 08:34N 37°57' E 023°36'1 0.7
2017-Mar-18 07:32N 37°57' E 023°37'0 0.3
2017-Mar-18 06:31N 37°57' E 023°36'1 1.1
2017-Mar-18 05:34N 37°56' E 023°36'1 1.1
2017-Mar-18 04:31N 37°57' E 023°37'0 0.0
2017-Mar-18 03:25N 37°57' E 023°37'  
Track history (hours):
 
Tides and Currents Weather Stations Pressure Air Temp Water Temp Dewpoint Dewpoint Depression Visibility Wind Speed Wind Dir Waves Ship Positions

Ifestos I

Last reported at 2017-Mar-28 01:34 UTC. Time now 2017-Mar-28 02:29 UTC.
Position N 37°57' E 023°37'.

Length 30 m.

Type: Tug. MMSI: 237070500.

Date/timePositionNaut miles runAvg speedWind from/ knotsBaromVisibWave heightAir tempDewpointWater temp
2017-Mar-28 01:34N 37°57' E 023°37'1 0.7
2017-Mar-28 00:34N 37°57' E 023°36'1 0.7
2017-Mar-27 23:33N 37°57' E 023°37'0 0.0
2017-Mar-27 22:34N 37°57' E 023°37'0 0.0
2017-Mar-27 21:33N 37°57' E 023°37'0 0.0
2017-Mar-27 20:34N 37°57' E 023°37'0 0.0
2017-Mar-27 19:33N 37°57' E 023°37'0 0.0
2017-Mar-27 18:33N 37°57' E 023°37'0 0.0
2017-Mar-27 17:33N 37°57' E 023°37'0 0.0
2017-Mar-27 16:33N 37°57' E 023°37'2 1.7
2017-Mar-27 15:34N 37°57' E 023°35'1 1.1
2017-Mar-27 14:34N 37°57' E 023°36'1 0.7
2017-Mar-27 13:33N 37°57' E 023°37'1 1.2
2017-Mar-27 12:33N 37°57' E 023°35'1 1.2
2017-Mar-27 11:34N 37°57' E 023°37'0 0.0
2017-Mar-27 10:34N 37°57' E 023°37'0 0.0
2017-Mar-27 08:33N 37°57' E 023°37'0 0.0
2017-Mar-27 07:33N 37°57' E 023°37'0 0.0
2017-Mar-27 06:33N 37°57' E 023°37'0 0.0
2017-Mar-27 05:33N 37°57' E 023°37'0 0.0
2017-Mar-27 04:33N 37°57' E 023°37'0 0.0
2017-Mar-27 03:33N 37°57' E 023°37'0 0.0
2017-Mar-27 02:33N 37°57' E 023°37'0 0.0
2017-Mar-27 01:33N 37°57' E 023°37'0 0.0
2017-Mar-27 00:33N 37°57' E 023°37'0 0.0
2017-Mar-26 23:33N 37°57' E 023°37'0 0.0
2017-Mar-26 22:33N 37°57' E 023°37'0 0.0
2017-Mar-26 21:33N 37°57' E 023°37'0 0.5
2017-Mar-26 20:33N 37°57' E 023°36'1 0.5
2017-Mar-26 19:33N 37°57' E 023°37'0 0.0
2017-Mar-26 18:33N 37°57' E 023°37'0 0.0
2017-Mar-26 17:33N 37°57' E 023°37'0 0.0
2017-Mar-26 16:33N 37°57' E 023°37'4 4.1
2017-Mar-26 15:33N 38°01' E 023°36'1 1.4
2017-Mar-26 14:34N 38°01' E 023°34'0 0.4
2017-Mar-26 13:33N 38°01' E 023°34'4 3.9
2017-Mar-26 12:33N 37°57' E 023°37'0 0.0
2017-Mar-26 11:33N 37°57' E 023°37'0 0.0
2017-Mar-26 10:33N 37°57' E 023°37'0 0.0
2017-Mar-26 09:33N 37°57' E 023°37'2 2.3
2017-Mar-26 08:33N 37°57' E 023°34'2 1.7
2017-Mar-26 07:34N 37°57' E 023°36'1 1.5
2017-Mar-26 06:33N 37°56' E 023°37'0 0.1
2017-Mar-26 05:33N 37°56' E 023°37'2 2.3
2017-Mar-26 04:33N 37°57' E 023°35'1 1.5
2017-Mar-26 03:33N 37°57' E 023°37'0 0.0
2017-Mar-26 02:33N 37°57' E 023°37'0 0.0
2017-Mar-26 01:33N 37°57' E 023°37'0 0.0
2017-Mar-26 00:33N 37°57' E 023°37'0 0.0
2017-Mar-25 23:33N 37°57' E 023°37'0 0.0
2017-Mar-25 22:33N 37°57' E 023°37'1 1.2
2017-Mar-25 21:33N 37°56' E 023°36'1 1.0
2017-Mar-25 20:34N 37°57' E 023°36'1 0.8
2017-Mar-25 19:33N 37°57' E 023°37'3 3.0
2017-Mar-25 18:33N 37°58' E 023°33'4 3.7
2017-Mar-25 17:33N 38°01' E 023°31'1 1.4
2017-Mar-25 16:33N 38°02' E 023°32'0 0.0
2017-Mar-25 15:34N 38°02' E 023°32'0 0.0
2017-Mar-25 14:33N 38°02' E 023°32'5 4.6
2017-Mar-25 13:34N 37°58' E 023°33'3 2.8
2017-Mar-25 12:33N 37°57' E 023°37'0 0.0
2017-Mar-25 11:33N 37°57' E 023°37'0 0.0
2017-Mar-25 10:33N 37°57' E 023°37'0 0.0
2017-Mar-25 09:33N 37°57' E 023°37'0 0.0
2017-Mar-25 08:33N 37°57' E 023°37'0 0.0
2017-Mar-25 07:33N 37°57' E 023°37'0 0.0
2017-Mar-25 06:33N 37°57' E 023°37'2 2.1
2017-Mar-25 05:33N 37°56' E 023°35'2 2.1
2017-Mar-25 04:33N 37°57' E 023°37'0 0.0
2017-Mar-25 03:33N 37°57' E 023°37'0 0.0
2017-Mar-25 02:33N 37°57' E 023°37'0 0.0
2017-Mar-25 01:33N 37°57' E 023°37'0 0.0
2017-Mar-25 00:33N 37°57' E 023°37'0 0.0
2017-Mar-24 23:33N 37°57' E 023°37'1 1.0
2017-Mar-24 22:33N 37°57' E 023°35'1 1.1
2017-Mar-24 21:33N 37°57' E 023°37'1 1.1
2017-Mar-24 20:33N 37°57' E 023°35'0 0.4
2017-Mar-24 19:34N 37°57' E 023°36'1 1.0
2017-Mar-24 18:33N 37°57' E 023°37'0 0.0
2017-Mar-24 17:33N 37°57' E 023°37'4 4.5
2017-Mar-24 16:33N 38°01' E 023°33'2 2.5
2017-Mar-24 15:33N 37°58' E 023°33'3 3.1
2017-Mar-24 14:33N 37°57' E 023°37'1 1.2
2017-Mar-24 13:33N 37°56' E 023°36'1 1.0
2017-Mar-24 12:33N 37°57' E 023°36'1 0.7
2017-Mar-24 11:33N 37°57' E 023°37'0 0.0
2017-Mar-24 09:33N 37°57' E 023°37'0 0.0
2017-Mar-24 08:34N 37°57' E 023°37'0 0.0
2017-Mar-24 07:33N 37°57' E 023°37'0 0.0
2017-Mar-24 06:33N 37°57' E 023°37'1 1.5
2017-Mar-24 05:34N 37°56' E 023°37'1 0.8
2017-Mar-24 04:33N 37°56' E 023°37'2 1.8
2017-Mar-24 03:34N 37°57' E 023°37'0 0.0
2017-Mar-24 02:33N 37°57' E 023°37'0 0.4
2017-Mar-24 01:34N 37°57' E 023°36'0 0.5
2017-Mar-24 00:33N 37°57' E 023°36'1 0.8
2017-Mar-23 23:34N 37°57' E 023°37'0 0.0
2017-Mar-23 22:33N 37°57' E 023°37'0 0.0
2017-Mar-23 21:34N 37°57' E 023°37'1 1.5
2017-Mar-23 20:34N 37°57' E 023°35'1 1.5
2017-Mar-23 19:33N 37°57' E 023°37'0 0.0
2017-Mar-23 18:34N 37°57' E 023°37'1 1.1
2017-Mar-23 17:33N 37°57' E 023°35'2 1.8
2017-Mar-23 16:33N 37°56' E 023°37'0 0.2
2017-Mar-23 15:33N 37°56' E 023°37'2 1.8
2017-Mar-23 14:33N 37°57' E 023°37'0 0.4
2017-Mar-23 13:33N 37°57' E 023°36'2 2.1
2017-Mar-23 12:34N 37°58' E 023°34'2 2.4
2017-Mar-23 11:34N 37°57' E 023°37'0 0.0
2017-Mar-23 08:34N 37°57' E 023°37'0 0.0
2017-Mar-23 06:21N 37°57' E 023°37'0 0.0
2017-Mar-23 05:31N 37°57' E 023°37'1 0.1
2017-Mar-22 22:33N 37°57' E 023°36'0 0.0
2017-Mar-22 20:33N 37°57' E 023°36'1 0.1
2017-Mar-22 13:08N 37°57' E 023°37'0 0.0
2017-Mar-22 05:31N 37°58' E 023°36'0 0.1
2017-Mar-22 03:27N 37°57' E 023°36'1 1.5
2017-Mar-22 02:33N 37°56' E 023°37'0 0.3
2017-Mar-22 01:33N 37°56' E 023°37'0 0.0
2017-Mar-22 00:33N 37°56' E 023°37'2 0.4
2017-Mar-21 20:33N 37°57' E 023°36'0 0.1
2017-Mar-21 16:33N 37°57' E 023°35'0 0.4
2017-Mar-21 15:33N 37°57' E 023°35'1 0.1
2017-Mar-21 06:06N 37°57' E 023°37'0 0.0
2017-Mar-21 04:13N 37°57' E 023°37'0 0.0
2017-Mar-20 23:26N 37°57' E 023°37'0 0.0
2017-Mar-20 21:26N 37°57' E 023°37'0 0.0
2017-Mar-20 20:32N 37°57' E 023°37'0 0.0
2017-Mar-20 18:33N 37°57' E 023°37'0 0.0
2017-Mar-20 17:29N 37°57' E 023°37'0 0.2
2017-Mar-20 16:30N 37°58' E 023°36'0 0.2
2017-Mar-20 15:34N 37°57' E 023°37'2 1.8
2017-Mar-20 14:33N 37°57' E 023°35'2 1.6
2017-Mar-20 13:28N 37°57' E 023°37'0 0.0
2017-Mar-20 12:33N 37°57' E 023°37'0 0.0
2017-Mar-20 07:10N 37°57' E 023°37'0 0.0
2017-Mar-20 06:31N 37°57' E 023°37'1 0.8
2017-Mar-20 05:33N 37°57' E 023°36'2 1.9
2017-Mar-20 04:33N 37°56' E 023°38'2 0.3
2017-Mar-19 22:12N 37°57' E 023°36'1 1.3
2017-Mar-19 21:33N 37°57' E 023°35'1 0.2
2017-Mar-19 17:20N 37°58' E 023°37'2 2.2
2017-Mar-19 16:33N 37°56' E 023°38'2 0.6
2017-Mar-19 13:33N 37°57' E 023°37'1 0.7
2017-Mar-19 12:33N 37°57' E 023°36'1 0.5
2017-Mar-19 11:30N 37°57' E 023°36'2 1.9
2017-Mar-19 10:34N 37°57' E 023°34'4 4.5
2017-Mar-19 09:34N 38°02' E 023°35'1 1.1
2017-Mar-19 08:33N 38°01' E 023°35'3 3.3
2017-Mar-19 07:33N 37°57' E 023°35'0 0.0
2017-Mar-19 05:33N 37°57' E 023°35'1 0.1
2017-Mar-18 23:33N 37°57' E 023°36'0 0.4
2017-Mar-18 22:20N 37°57' E 023°37'1 1.0
2017-Mar-18 21:33N 37°57' E 023°36'6 6.2
2017-Mar-18 20:33N 38°01' E 023°30'6 5.9
2017-Mar-18 19:33N 37°58' E 023°23'1 1.2
2017-Mar-18 18:34N 37°58' E 023°24'7 6.8
2017-Mar-18 17:34N 37°60' E 023°33'4 3.1
2017-Mar-18 16:16N 37°57' E 023°37'0 0.0
2017-Mar-18 14:31N 37°57' E 023°37'0 0.0
2017-Mar-18 13:28N 37°57' E 023°37'0 0.4
2017-Mar-18 12:32N 37°57' E 023°36'0 0.3
2017-Mar-18 11:11N 37°57' E 023°37'0 0.0
2017-Mar-18 10:33N 37°57' E 023°37'0 0.0
2017-Mar-18 09:18N 37°57' E 023°37'1 0.9
2017-Mar-18 08:34N 37°57' E 023°36'1 0.7
2017-Mar-18 07:32N 37°57' E 023°37'0 0.3
2017-Mar-18 06:31N 37°57' E 023°36'1 1.1
2017-Mar-18 05:34N 37°56' E 023°36'1 1.1
2017-Mar-18 04:31N 37°57' E 023°37'0 0.0
2017-Mar-18 03:25N 37°57' E 023°37'  

Dump ship's entire track history